Time;durP1;ratioP1;P1;durP2;ratioP2;P2;SDS_P1;SDS_P2;PMS_P1;PMS_P2;Temp;Humidity;BMP_temperature;BMP_pressure;BME280_temperature;BME280_humidity;BME280_pressure;Samples;Min_cycle;Max_cycle;Signal;HPM_P1;HPM_P2
2024/03/12 00:00:13;;;;;;;39.42;20.63;;;8.00;99.90;;;;;;4949236;29;20039;-87
2024/03/12 00:02:44;;;;;;;39.65;20.85;;;7.90;99.90;;;;;;4943008;29;20035;-87
2024/03/12 00:05:13;;;;;;;39.70;21.60;;;7.90;99.90;;;;;;4964313;29;20040;-87
2024/03/12 00:07:44;;;;;;;39.10;20.70;;;8.40;99.90;;;;;;4982423;29;20051;-87
2024/03/12 00:10:16;;;;;;;43.80;21.02;;;7.80;99.90;;;;;;4957462;29;20035;-87
2024/03/12 00:12:47;;;;;;;40.80;20.70;;;8.10;99.90;;;;;;4945885;28;20043;-87
2024/03/12 00:15:18;;;;;;;36.97;20.60;;;7.80;99.90;;;;;;4957664;29;20051;-87
2024/03/12 00:17:45;;;;;;;37.70;20.25;;;7.80;99.90;;;;;;4943461;29;20043;-87
2024/03/12 00:20:17;;;;;;;43.13;21.35;;;8.10;99.90;;;;;;4957742;29;20031;-87
2024/03/12 00:22:45;;;;;;;46.45;22.00;;;7.90;99.90;;;;;;4953584;29;20569;-87
2024/03/12 00:25:16;;;;;;;37.28;19.67;;;7.90;99.90;;;;;;4958157;29;20051;-87
2024/03/12 00:27:43;;;;;;;40.15;21.13;;;7.90;99.90;;;;;;4950559;29;20106;-87
2024/03/12 00:30:11;;;;;;;38.50;20.80;;;7.80;99.90;;;;;;4964778;29;20506;-87
2024/03/12 00:32:38;;;;;;;39.47;20.80;;;7.90;99.90;;;;;;4938169;29;20472;-87
2024/03/12 00:35:06;;;;;;;39.58;21.02;;;7.80;99.90;;;;;;4954087;29;20043;-87
2024/03/12 00:37:33;;;;;;;42.90;20.98;;;7.80;99.90;;;;;;4944083;29;20044;-87
2024/03/12 00:40:00;;;;;;;38.47;20.55;;;8.60;99.90;;;;;;4957300;29;20099;-87
2024/03/12 00:42:27;;;;;;;38.80;20.95;;;7.80;99.90;;;;;;4940846;29;20072;-87
2024/03/12 00:44:53;;;;;;;39.97;21.08;;;8.10;99.90;;;;;;4946428;29;20044;-87
2024/03/12 00:47:22;;;;;;;40.08;20.98;;;7.80;99.90;;;;;;4947092;29;20490;-87
2024/03/12 00:49:50;;;;;;;40.42;21.77;;;8.60;99.90;;;;;;4952920;29;20055;-87
2024/03/12 00:52:17;;;;;;;38.33;21.30;;;8.50;99.90;;;;;;4956758;29;20062;-87
2024/03/12 00:54:50;;;;;;;41.80;21.83;;;8.80;99.90;;;;;;4961786;29;20043;-87
2024/03/12 00:57:16;;;;;;;39.53;20.92;;;7.70;99.90;;;;;;4950947;29;20130;-87
2024/03/12 00:59:43;;;;;;;35.83;19.67;;;7.70;99.90;;;;;;4945396;29;20123;-87
2024/03/12 01:02:10;;;;;;;35.38;19.63;;;7.70;99.90;;;;;;4977543;29;20039;-87
2024/03/12 01:04:40;;;;;;;35.88;19.48;;;8.60;99.90;;;;;;4956798;29;20047;-87
2024/03/12 01:07:07;;;;;;;36.75;19.67;;;8.20;99.90;;;;;;4950216;29;20039;-87
2024/03/12 01:09:39;;;;;;;37.10;19.13;;;7.90;99.90;;;;;;4954562;29;20386;-87
2024/03/12 01:12:11;;;;;;;33.22;18.85;;;7.80;99.90;;;;;;4956128;29;20071;-87
2024/03/12 01:14:38;;;;;;;38.80;20.52;;;7.80;99.90;;;;;;4966340;29;20121;-87
2024/03/12 01:17:06;;;;;;;35.70;19.67;;;7.70;99.90;;;;;;4967883;29;20095;-87
2024/03/12 01:19:35;;;;;;;38.38;20.40;;;7.60;99.90;;;;;;4953353;29;20043;-88
2024/03/12 01:22:04;;;;;;;35.30;18.55;;;7.60;99.90;;;;;;4979981;29;20042;-87
2024/03/12 01:24:31;;;;;;;34.58;19.40;;;7.60;99.90;;;;;;4962774;29;20043;-86
2024/03/12 01:26:57;;;;;;;35.10;18.95;;;7.60;99.90;;;;;;4965685;29;20167;-87
2024/03/12 01:29:24;;;;;;;34.90;19.38;;;7.60;99.90;;;;;;4958279;29;20075;-87
2024/03/12 01:31:52;;;;;;;37.00;20.02;;;7.50;99.90;;;;;;4963682;29;20449;-87
2024/03/12 01:34:22;;;;;;;35.60;20.20;;;8.10;99.90;;;;;;4955127;29;20096;-87
2024/03/12 01:36:52;;;;;;;37.92;20.83;;;7.70;99.90;;;;;;4956868;29;20118;-88
2024/03/12 01:39:25;;;;;;;35.75;19.85;;;7.60;99.90;;;;;;4970340;29;20058;-87
2024/03/12 01:41:52;;;;;;;32.90;18.35;;;7.60;99.90;;;;;;4956404;29;20048;-87
2024/03/12 01:44:19;;;;;;;34.63;19.42;;;8.00;99.90;;;;;;4968578;29;20507;-87
2024/03/12 01:46:46;;;;;;;35.63;19.70;;;7.90;99.90;;;;;;4952545;29;20569;-87
2024/03/12 01:49:14;;;;;;;35.40;18.85;;;7.40;99.90;;;;;;4962375;29;20031;-87
2024/03/12 01:51:41;;;;;;;31.63;19.58;;;7.70;99.90;;;;;;4950918;29;20493;-87
2024/03/12 01:54:08;;;;;;;33.80;19.08;;;7.40;99.90;;;;;;4940747;29;20120;-87
2024/03/12 01:56:35;;;;;;;33.72;19.23;;;7.30;99.90;;;;;;4945835;29;20149;-87
2024/03/12 01:59:02;;;;;;;37.10;19.77;;;7.40;99.90;;;;;;4949099;29;20067;-88
2024/03/12 02:01:28;;;;;;;36.63;19.83;;;8.30;99.90;;;;;;4945256;29;20044;-87
2024/03/12 02:03:56;;;;;;;37.55;19.20;;;7.50;99.90;;;;;;4975650;28;20039;-87
2024/03/12 02:06:23;;;;;;;35.25;19.88;;;7.40;99.90;;;;;;4969272;29;20509;-87
2024/03/12 02:08:51;;;;;;;36.53;20.42;;;7.90;99.90;;;;;;4956863;29;20048;-87
2024/03/12 02:11:19;;;;;;;35.47;20.23;;;7.40;99.90;;;;;;4950470;29;20050;-87
2024/03/12 02:13:46;;;;;;;37.33;20.45;;;7.50;99.90;;;;;;4960202;29;20039;-87
2024/03/12 02:16:12;;;;;;;35.45;20.40;;;8.30;99.90;;;;;;4966340;29;20497;-87
2024/03/12 02:18:39;;;;;;;37.42;20.80;;;7.40;99.90;;;;;;4966762;29;20082;-87
2024/03/12 02:21:06;;;;;;;36.45;20.17;;;8.20;99.90;;;;;;4978245;29;20475;-86
2024/03/12 02:23:40;;;;;;;38.17;20.02;;;7.60;99.90;;;;;;4955701;29;20168;-87
2024/03/12 02:26:07;;;;;;;38.70;20.45;;;7.30;99.90;;;;;;4971372;29;20524;-87
2024/03/12 02:28:34;;;;;;;37.22;20.10;;;7.40;99.90;;;;;;4957860;29;20552;-87
2024/03/12 02:31:06;;;;;;;34.72;19.35;;;7.30;99.90;;;;;;4971932;29;20155;-87
2024/03/12 02:33:33;;;;;;;39.05;21.80;;;7.30;99.90;;;;;;4958458;29;20044;-87
2024/03/12 02:36:00;;;;;;;39.45;21.00;;;8.00;99.90;;;;;;4953091;29;20501;-87
2024/03/12 02:38:27;;;;;;;38.58;21.42;;;7.70;99.90;;;;;;4942830;29;20043;-87
2024/03/12 02:40:53;;;;;;;39.28;21.80;;;7.30;99.90;;;;;;4942900;29;20565;-87
2024/03/12 02:43:21;;;;;;;37.60;20.13;;;8.20;99.90;;;;;;4956196;29;20046;-87
2024/03/12 02:45:49;;;;;;;36.63;20.13;;;7.20;99.90;;;;;;4952546;29;20048;-87
2024/03/12 02:48:16;;;;;;;40.80;21.27;;;7.20;99.90;;;;;;4936688;29;20052;-87
2024/03/12 02:50:42;;;;;;;36.50;21.05;;;7.80;99.90;;;;;;4952436;29;20039;-87
2024/03/12 02:53:10;;;;;;;39.25;20.65;;;7.10;99.90;;;;;;4977748;29;20047;-87
2024/03/12 02:55:37;;;;;;;38.05;20.48;;;7.10;99.90;;;;;;4981608;29;20129;-88
2024/03/12 02:58:04;;;;;;;40.28;21.42;;;7.10;99.90;;;;;;4970446;29;20035;-87
2024/03/12 03:00:31;;;;;;;40.97;21.88;;;7.10;99.90;;;;;;4953178;29;20068;-87
2024/03/12 03:02:58;;;;;;;43.25;21.55;;;7.40;99.90;;;;;;4968862;29;20048;-87
2024/03/12 03:05:25;;;;;;;38.38;21.52;;;7.40;99.90;;;;;;4976059;28;20052;-87
2024/03/12 03:07:51;;;;;;;39.08;21.75;;;7.80;99.90;;;;;;4970979;29;20043;-87
2024/03/12 03:10:18;;;;;;;39.17;22.05;;;7.20;99.90;;;;;;4968399;28;20040;-87
2024/03/12 03:12:46;;;;;;;42.20;23.05;;;7.10;99.90;;;;;;4958314;29;20051;-87
2024/03/12 03:15:13;;;;;;;36.03;21.10;;;7.10;99.90;;;;;;4959889;29;20409;-87
2024/03/12 03:17:45;;;;;;;39.00;22.15;;;7.20;99.90;;;;;;4961317;29;20043;-87
2024/03/12 03:20:14;;;;;;;46.40;23.38;;;7.20;99.90;;;;;;4962465;29;20044;-87
2024/03/12 03:22:47;;;;;;;40.53;21.35;;;7.20;99.90;;;;;;4954575;29;20035;-87
2024/03/12 03:25:14;;;;;;;37.28;20.10;;;7.20;99.90;;;;;;4953826;29;20520;-87
2024/03/12 03:27:41;;;;;;;37.20;21.00;;;7.20;99.90;;;;;;4951660;29;20517;-87
2024/03/12 03:30:12;;;;;;;39.50;21.45;;;7.80;99.90;;;;;;4953801;29;20044;-87
2024/03/12 03:32:39;;;;;;;38.30;21.25;;;7.20;99.90;;;;;;4967240;29;20050;-87
2024/03/12 03:35:07;;;;;;;35.50;20.35;;;7.20;99.90;;;;;;4947767;29;20726;-87
2024/03/12 03:37:36;;;;;;;38.53;20.65;;;7.20;99.90;;;;;;4956837;29;20120;-87
2024/03/12 03:40:04;;;;;;;37.85;20.95;;;7.20;99.90;;;;;;4937360;29;20051;-87
2024/03/12 03:42:31;;;;;;;39.70;21.02;;;7.20;99.90;;;;;;4958501;29;20077;-87
2024/03/12 03:44:58;;;;;;;37.35;20.48;;;8.10;99.90;;;;;;4972921;29;20401;-87
2024/03/12 03:47:28;;;;;;;38.75;21.38;;;8.10;99.90;;;;;;4956478;29;20048;-87
2024/03/12 03:49:55;;;;;;;38.20;21.17;;;7.20;99.90;;;;;;4965721;29;20039;-87
2024/03/12 03:52:22;;;;;;;42.05;21.50;;;7.10;99.90;;;;;;4941968;29;20051;-87
2024/03/12 03:54:51;;;;;;;37.72;21.02;;;7.20;99.90;;;;;;4957924;29;20046;-87
2024/03/12 03:57:18;;;;;;;39.67;20.17;;;7.20;99.90;;;;;;4961822;29;20501;-87
2024/03/12 03:59:46;;;;;;;37.63;21.02;;;7.20;99.90;;;;;;4980684;29;20097;-87
2024/03/12 04:02:13;;;;;;;37.97;20.17;;;7.50;99.90;;;;;;4954512;29;20417;-87
2024/03/12 04:04:42;;;;;;;36.50;21.27;;;7.20;99.90;;;;;;4967097;29;20046;-87
2024/03/12 04:07:08;;;;;;;37.60;21.90;;;7.20;99.90;;;;;;4952262;29;20390;-87
2024/03/12 04:09:35;;;;;;;37.15;21.73;;;7.70;99.90;;;;;;4960217;29;20102;-87
2024/03/12 04:12:04;;;;;;;33.67;20.65;;;7.20;99.90;;;;;;4964679;29;20822;-87
2024/03/12 04:14:31;;;;;;;40.22;20.98;;;7.20;99.90;;;;;;4954575;29;20046;-88
2024/03/12 04:16:58;;;;;;;37.88;20.27;;;7.20;99.90;;;;;;4936830;29;20441;-87
2024/03/12 04:19:24;;;;;;;35.85;20.23;;;7.70;99.90;;;;;;4969148;29;20043;-87
2024/03/12 04:21:51;;;;;;;35.78;20.75;;;7.20;99.90;;;;;;4957710;29;20474;-87
2024/03/12 04:24:18;;;;;;;35.25;19.83;;;7.60;99.90;;;;;;4953496;29;20039;-87
2024/03/12 04:26:45;;;;;;;40.13;21.33;;;7.20;99.90;;;;;;4950578;29;20064;-87
2024/03/12 04:29:12;;;;;;;38.28;21.77;;;7.20;99.90;;;;;;4954292;29;20043;-87
2024/03/12 04:31:39;;;;;;;42.15;21.17;;;7.20;99.90;;;;;;4951325;28;20500;-87
2024/03/12 04:34:08;;;;;;;38.53;22.25;;;7.20;99.90;;;;;;4970818;29;20050;-87
2024/03/12 04:36:35;;;;;;;36.67;20.75;;;7.20;99.90;;;;;;4960369;29;20521;-87
2024/03/12 04:41:48;;;;;;;40.72;21.88;;;7.20;99.90;;;;;;4957905;29;20540;-87
2024/03/12 04:44:14;;;;;;;38.03;21.80;;;7.20;99.90;;;;;;4961229;29;20183;-87
2024/03/12 04:46:44;;;;;;;39.65;21.55;;;7.20;99.90;;;;;;4953369;29;20051;-87
2024/03/12 04:49:11;;;;;;;36.95;21.48;;;7.20;99.90;;;;;;4965958;29;20047;-87
2024/03/12 04:51:38;;;;;;;42.42;22.13;;;7.30;99.90;;;;;;4957390;29;20131;-87
2024/03/12 04:54:04;;;;;;;40.28;22.20;;;7.30;99.90;;;;;;4946945;29;20568;-87
2024/03/12 04:56:31;;;;;;;41.65;22.67;;;7.30;99.90;;;;;;4947498;29;20074;-87
2024/03/12 04:58:58;;;;;;;45.63;24.25;;;7.20;99.90;;;;;;4957029;29;20113;-87
2024/03/12 05:01:24;;;;;;;46.53;23.25;;;7.30;99.90;;;;;;4974494;29;20039;-87
2024/03/12 05:03:51;;;;;;;43.50;23.00;;;7.60;99.90;;;;;;4975462;29;20046;-87
2024/03/12 05:06:19;;;;;;;43.92;22.90;;;8.10;99.90;;;;;;4963782;29;20424;-87
2024/03/12 05:08:45;;;;;;;40.65;22.77;;;7.90;99.90;;;;;;4958872;29;20094;-87
2024/03/12 05:11:14;;;;;;;42.78;23.25;;;7.80;99.90;;;;;;4959333;29;20051;-87
2024/03/12 05:13:43;;;;;;;46.45;24.05;;;8.00;99.90;;;;;;4960231;29;20148;-87
2024/03/12 05:16:09;;;;;;;44.08;23.27;;;7.80;99.90;;;;;;4947148;29;20044;-87
2024/03/12 05:18:36;;;;;;;48.00;24.20;;;7.30;99.90;;;;;;4966370;29;20085;-87
2024/03/12 05:21:03;;;;;;;52.67;25.30;;;7.30;99.90;;;;;;4954258;29;20569;-87
2024/03/12 05:23:29;;;;;;;51.47;25.75;;;7.30;99.90;;;;;;4960888;29;20047;-87
2024/03/12 05:25:56;;;;;;;50.35;24.42;;;7.30;99.90;;;;;;4970640;29;20051;-87
2024/03/12 05:28:23;;;;;;;51.45;25.85;;;7.30;99.90;;;;;;4964404;29;20048;-87
2024/03/12 05:30:50;;;;;;;51.40;25.08;;;8.10;99.90;;;;;;4958002;29;20043;-87
2024/03/12 05:33:17;;;;;;;52.78;25.40;;;7.30;99.90;;;;;;4946144;29;20052;-87
2024/03/12 05:35:51;;;;;;;60.90;26.65;;;7.20;99.90;;;;;;4970660;29;20050;-87
2024/03/12 05:38:55;;;;;;;54.53;26.87;;;7.30;99.90;;;;;;4944500;28;20469;-87
2024/03/12 05:49:09;;;;;;;;;;;7.40;99.90;;;;;;4981376;29;20182;-87
2024/03/12 05:51:37;;;;;;;59.10;27.88;;;7.30;99.90;;;;;;4957004;29;20435;-87
2024/03/12 05:54:07;;;;;;;62.78;27.52;;;7.40;99.90;;;;;;4957473;29;20386;-87
2024/03/12 05:56:37;;;;;;;68.03;27.65;;;7.40;99.90;;;;;;4946064;29;20051;-87
2024/03/12 05:59:07;;;;;;;67.97;29.40;;;7.40;99.90;;;;;;4938842;29;20534;-87
2024/03/12 06:01:33;;;;;;;66.18;29.02;;;7.80;99.90;;;;;;4946087;29;20074;-87
2024/03/12 06:04:02;;;;;;;72.00;28.98;;;7.70;99.90;;;;;;4943299;29;20425;-87
2024/03/12 06:06:32;;;;;;;67.15;27.77;;;7.70;99.90;;;;;;4955772;29;20042;-87
2024/03/12 06:08:58;;;;;;;73.43;28.60;;;7.40;99.90;;;;;;4963457;29;20097;-87
2024/03/12 06:11:25;;;;;;;71.05;29.90;;;7.60;99.90;;;;;;4955552;29;20039;-87
2024/03/12 06:13:54;;;;;;;72.93;29.98;;;7.50;99.90;;;;;;4979617;29;20134;-87
2024/03/12 06:16:21;;;;;;;69.90;29.73;;;7.40;99.90;;;;;;4964508;29;20508;-87
2024/03/12 06:18:47;;;;;;;76.32;29.55;;;7.40;99.90;;;;;;4955304;29;20122;-87
2024/03/12 06:21:16;;;;;;;72.07;31.05;;;7.40;99.90;;;;;;4950685;29;20036;-87
2024/03/12 06:23:42;;;;;;;76.63;30.67;;;7.60;99.90;;;;;;4961040;29;20047;-87
2024/03/12 06:26:09;;;;;;;72.55;29.27;;;7.40;99.90;;;;;;4957433;29;20060;-87
2024/03/12 06:28:36;;;;;;;72.57;30.00;;;8.00;99.90;;;;;;4947820;29;20055;-87
2024/03/12 06:31:03;;;;;;;65.70;30.60;;;7.40;99.90;;;;;;4964172;29;20111;-87
2024/03/12 06:33:30;;;;;;;80.63;30.77;;;7.40;99.90;;;;;;4941950;29;20071;-87
2024/03/12 06:35:57;;;;;;;75.70;30.95;;;8.10;99.90;;;;;;4940245;29;20132;-88
2024/03/12 06:38:24;;;;;;;87.30;31.52;;;7.90;99.90;;;;;;4958572;29;20126;-88
2024/03/12 06:40:51;;;;;;;76.70;31.45;;;7.40;99.90;;;;;;4959614;29;20069;-88
2024/03/12 06:43:18;;;;;;;87.20;33.58;;;7.40;99.90;;;;;;4964556;29;20051;-88
2024/03/12 06:45:46;;;;;;;83.72;32.63;;;8.30;99.90;;;;;;4962428;29;20118;-86
2024/03/12 06:48:17;;;;;;;91.35;33.35;;;7.80;99.90;;;;;;4955214;29;20084;-87
2024/03/12 06:50:44;;;;;;;81.82;31.52;;;8.20;99.90;;;;;;4949594;29;20042;-88
2024/03/12 06:53:14;;;;;;;79.93;32.60;;;7.50;99.90;;;;;;4952302;29;20533;-87
2024/03/12 06:55:41;;;;;;;78.55;32.13;;;7.50;99.90;;;;;;4960631;29;20047;-87
2024/03/12 06:58:11;;;;;;;88.35;34.05;;;7.50;99.90;;;;;;4955540;28;20042;-87
2024/03/12 07:00:42;;;;;;;86.03;33.00;;;7.50;99.90;;;;;;4952458;29;20091;-87
2024/03/12 07:03:09;;;;;;;90.68;32.42;;;8.20;99.90;;;;;;4948885;29;20055;-88
2024/03/12 07:05:42;;;;;;;82.38;31.25;;;7.90;99.90;;;;;;4958570;28;20181;-86
2024/03/12 07:08:10;;;;;;;83.55;33.50;;;7.50;99.90;;;;;;4946748;29;20063;-87
2024/03/12 07:10:40;;;;;;;80.70;32.05;;;7.50;99.90;;;;;;4964168;29;20040;-87
2024/03/12 07:13:07;;;;;;;90.07;33.15;;;7.90;99.90;;;;;;4961809;29;20512;-87
2024/03/12 07:15:39;;;;;;;90.25;33.75;;;7.60;99.90;;;;;;4942300;29;20036;-87
2024/03/12 07:18:07;;;;;;;91.03;32.83;;;7.60;99.90;;;;;;4943896;29;20036;-89
2024/03/12 07:20:34;;;;;;;76.63;30.58;;;8.30;99.90;;;;;;4963864;29;20121;-91
2024/03/12 07:23:02;;;;;;;81.72;32.80;;;7.60;99.90;;;;;;4953447;29;20456;-89
2024/03/12 07:25:30;;;;;;;92.82;34.70;;;7.60;99.90;;;;;;4958350;29;20044;-89
2024/03/12 07:28:07;;;;;;;85.82;34.28;;;8.20;99.90;;;;;;4937054;29;20046;-89
2024/03/12 07:30:34;;;;;;;77.63;33.17;;;7.60;99.90;;;;;;4947980;29;20078;-89
2024/03/12 07:33:05;;;;;;;84.68;33.28;;;7.60;99.90;;;;;;4948213;29;20044;-89
2024/03/12 07:35:33;;;;;;;86.85;33.80;;;7.70;99.90;;;;;;4944675;29;20067;-89
2024/03/12 07:38:00;;;;;;;75.65;32.55;;;8.40;99.90;;;;;;4956517;29;20080;-89
2024/03/12 07:40:27;;;;;;;77.07;32.83;;;7.70;99.90;;;;;;4948947;29;20068;-89
2024/03/12 07:42:54;;;;;;;84.10;34.97;;;7.70;99.90;;;;;;4936778;29;20040;-90
2024/03/12 07:45:24;;;;;;;71.28;32.33;;;8.40;99.90;;;;;;4964547;29;20063;-89
2024/03/12 07:47:51;;;;;;;77.25;32.05;;;7.80;99.90;;;;;;4955886;29;20772;-90
2024/03/12 07:50:18;;;;;;;70.55;32.53;;;7.80;99.90;;;;;;4943576;29;20052;-89
2024/03/12 07:52:45;;;;;;;75.95;32.78;;;7.90;99.90;;;;;;4960128;29;20054;-89
2024/03/12 07:55:12;;;;;;;73.35;32.50;;;7.80;99.90;;;;;;4949796;29;20044;-89
2024/03/12 07:57:39;;;;;;;81.05;33.00;;;8.80;99.90;;;;;;4961448;29;20039;-92
2024/03/12 08:00:14;;;;;;;67.28;29.90;;;9.10;99.90;;;;;;4952941;29;20039;-90
2024/03/12 08:02:41;;;;;;;69.07;32.88;;;7.90;99.90;;;;;;4945948;29;20115;-89
2024/03/12 08:05:07;;;;;;;66.10;30.65;;;8.10;99.90;;;;;;4962805;29;20514;-90
2024/03/12 08:07:34;;;;;;;65.78;29.98;;;7.90;99.90;;;;;;4950198;29;20059;-90
2024/03/12 08:10:01;;;;;;;60.72;28.80;;;7.90;99.90;;;;;;4954887;29;20046;-89
2024/03/12 08:12:28;;;;;;;64.15;29.45;;;7.90;99.90;;;;;;4957700;29;20044;-90
2024/03/12 08:14:56;;;;;;;62.15;29.95;;;7.90;99.90;;;;;;4942400;29;20529;-89
2024/03/12 08:17:23;;;;;;;68.32;29.70;;;8.00;99.90;;;;;;4946331;29;20044;-90
2024/03/12 08:19:52;;;;;;;56.13;28.80;;;7.90;99.90;;;;;;4959897;29;20505;-89
2024/03/12 08:22:19;;;;;;;61.83;29.73;;;7.90;99.90;;;;;;4958279;29;20084;-89
2024/03/12 08:24:45;;;;;;;61.22;28.92;;;7.90;99.90;;;;;;4943421;29;20051;-89
2024/03/12 08:27:12;;;;;;;59.90;27.85;;;7.90;99.90;;;;;;4941686;29;20425;-90
2024/03/12 08:29:39;;;;;;;61.53;28.73;;;8.10;99.90;;;;;;4948266;29;20098;-90
2024/03/12 08:32:05;;;;;;;62.85;28.92;;;8.80;99.90;;;;;;4962023;29;20043;-89
2024/03/12 08:34:32;;;;;;;57.22;29.63;;;7.90;99.90;;;;;;4951223;29;20051;-88
2024/03/12 08:37:00;;;;;;;56.35;29.63;;;8.00;99.90;;;;;;4974265;29;20115;-88
2024/03/12 08:39:27;;;;;;;56.55;28.30;;;8.20;99.90;;;;;;4962085;28;20047;-89
2024/03/12 08:41:54;;;;;;;58.50;29.35;;;8.10;99.90;;;;;;4953712;29;20040;-88
2024/03/12 08:44:21;;;;;;;62.38;29.05;;;8.20;99.90;;;;;;4944246;29;20039;-88
2024/03/12 08:46:49;;;;;;;58.00;27.98;;;8.20;99.90;;;;;;4968464;29;20039;-90
2024/03/12 08:49:16;;;;;;;61.20;28.70;;;8.20;99.90;;;;;;4958060;29;20074;-91
2024/03/12 08:51:43;;;;;;;56.33;27.15;;;8.20;99.90;;;;;;4951622;29;20071;-89
2024/03/12 08:54:09;;;;;;;58.90;28.88;;;9.10;99.90;;;;;;4959217;29;20039;-88
2024/03/12 08:56:36;;;;;;;62.45;27.98;;;8.30;99.90;;;;;;4958801;29;20505;-89
2024/03/12 08:59:05;;;;;;;61.42;28.88;;;9.10;99.90;;;;;;4958675;28;20035;-90
2024/03/12 09:01:31;;;;;;;66.15;30.00;;;8.30;99.90;;;;;;4946556;29;20118;-89
2024/03/12 09:03:58;;;;;;;65.90;29.23;;;8.80;99.90;;;;;;4959708;29;20151;-86
2024/03/12 09:06:26;;;;;;;62.50;30.67;;;9.20;99.90;;;;;;4954031;29;20074;-87
2024/03/12 09:08:52;;;;;;;67.95;29.70;;;8.50;99.90;;;;;;4964499;29;20047;-87
2024/03/12 09:11:20;;;;;;;64.22;28.33;;;8.90;99.90;;;;;;4958177;29;20054;-86
2024/03/12 09:13:47;;;;;;;68.10;29.85;;;8.30;99.90;;;;;;4952245;29;20134;-86
2024/03/12 09:16:14;;;;;;;63.38;28.92;;;8.90;99.90;;;;;;4955306;29;20498;-87
2024/03/12 09:18:44;;;;;;;64.05;29.48;;;8.40;99.90;;;;;;4952729;29;20122;-86
2024/03/12 09:21:15;;;;;;;62.78;29.10;;;8.40;99.90;;;;;;4954935;29;20031;-87
2024/03/12 09:23:44;;;;;;;59.83;28.90;;;8.50;99.90;;;;;;4955064;29;20054;-87
2024/03/12 09:26:11;;;;;;;70.05;30.20;;;8.50;99.90;;;;;;4953140;29;20060;-86
2024/03/12 09:28:37;;;;;;;67.13;29.63;;;8.50;99.90;;;;;;4944099;29;20064;-87
2024/03/12 09:31:05;;;;;;;73.30;31.02;;;8.80;99.90;;;;;;4953170;29;20035;-86
2024/03/12 09:33:32;;;;;;;69.80;29.65;;;8.50;99.90;;;;;;4973861;29;20039;-86
2024/03/12 09:35:58;;;;;;;74.90;29.45;;;8.60;99.90;;;;;;4960277;29;20533;-87
2024/03/12 09:38:25;;;;;;;67.07;29.85;;;8.60;99.90;;;;;;4958893;29;20044;-86
2024/03/12 09:41:05;;;;;;;70.00;29.98;;;8.60;99.90;;;;;;4958007;29;20481;-86
2024/03/12 09:43:35;;;;;;;78.88;30.45;;;8.50;99.90;;;;;;4942477;29;20057;-86
2024/03/12 09:46:03;;;;;;;72.65;30.17;;;8.90;99.90;;;;;;4954266;29;20032;-86
2024/03/12 09:48:31;;;;;;;75.32;30.83;;;8.40;99.90;;;;;;4951786;29;20071;-86
2024/03/12 09:51:00;;;;;;;72.10;28.73;;;8.40;99.90;;;;;;4956619;29;20490;-86
2024/03/12 09:53:27;;;;;;;70.00;30.15;;;8.40;99.90;;;;;;4961587;29;20043;-86
2024/03/12 09:55:54;;;;;;;75.35;30.98;;;9.20;99.90;;;;;;4959248;29;20043;-86
2024/03/12 09:58:21;;;;;;;71.70;29.58;;;8.40;99.90;;;;;;4945163;29;20041;-85
2024/03/12 10:00:48;;;;;;;76.40;30.02;;;8.40;99.90;;;;;;4949609;29;20440;-85
2024/03/12 10:03:18;;;;;;;70.35;27.75;;;8.40;99.90;;;;;;4948625;29;20035;-85
2024/03/12 10:05:46;;;;;;;66.25;27.73;;;8.40;99.90;;;;;;4959643;29;20040;-85
2024/03/12 10:08:14;;;;;;;66.43;26.95;;;8.30;99.90;;;;;;4978977;28;20039;-85
2024/03/12 10:10:46;;;;;;;64.07;27.45;;;8.30;99.90;;;;;;4954544;29;20044;-85
2024/03/12 10:13:14;;;;;;;60.97;25.25;;;8.60;99.90;;;;;;4952070;29;20051;-85
2024/03/12 10:15:51;;;;;;;62.15;26.77;;;8.30;99.90;;;;;;4965975;29;20067;-86
2024/03/12 10:18:19;;;;;;;55.60;24.33;;;8.40;99.90;;;;;;4956672;29;20523;-86
2024/03/12 10:20:51;;;;;;;60.35;24.98;;;9.10;99.90;;;;;;4954961;29;20044;-86
2024/03/12 10:23:18;;;;;;;50.58;23.23;;;8.90;99.90;;;;;;4961098;29;20095;-86
2024/03/12 10:25:45;;;;;;;53.20;23.58;;;8.40;99.90;;;;;;4959213;29;20052;-86
2024/03/12 10:28:16;;;;;;;53.70;22.42;;;9.30;99.90;;;;;;4963142;29;20107;-86
2024/03/12 10:30:45;;;;;;;48.80;21.98;;;8.50;99.90;;;;;;4969941;28;20119;-88
2024/03/12 10:33:21;;;;;;;56.00;22.52;;;8.50;99.90;;;;;;4950999;29;20040;-88
2024/03/12 10:35:50;;;;;;;43.92;19.67;;;8.80;99.90;;;;;;4946032;29;20593;-86
2024/03/12 10:38:28;;;;;;;41.55;18.20;;;8.50;99.90;;;;;;4952490;29;20037;-86
2024/03/12 10:40:56;;;;;;;47.35;18.33;;;8.50;99.90;;;;;;4970656;29;20047;-86
2024/03/12 10:43:26;;;;;;;36.70;17.33;;;8.50;99.90;;;;;;4954209;29;20044;-86
2024/03/12 10:45:56;;;;;;;36.75;16.45;;;8.80;99.90;;;;;;4945220;29;20063;-87
2024/03/12 10:48:25;;;;;;;37.67;16.65;;;8.50;99.90;;;;;;4948183;29;20135;-87
2024/03/12 10:50:54;;;;;;;32.63;14.68;;;9.50;99.90;;;;;;4944935;29;20047;-87
2024/03/12 10:53:21;;;;;;;29.65;14.25;;;8.60;99.90;;;;;;4969141;29;20049;-87
2024/03/12 10:55:47;;;;;;;28.20;14.55;;;8.70;99.90;;;;;;4979241;29;20618;-87
2024/03/12 10:58:15;;;;;;;29.75;13.20;;;8.90;99.90;;;;;;4946387;29;20103;-87
2024/03/12 11:00:42;;;;;;;27.65;13.20;;;9.00;99.90;;;;;;4946932;29;20044;-86
2024/03/12 11:03:09;;;;;;;25.38;12.27;;;9.10;99.90;;;;;;4950696;28;20046;-86
2024/03/12 11:05:38;;;;;;;24.75;12.13;;;9.10;99.90;;;;;;4944515;29;20048;-86
2024/03/12 11:08:09;;;;;;;26.85;12.30;;;9.10;99.90;;;;;;4944290;29;20266;-86
2024/03/12 11:10:36;;;;;;;21.77;11.43;;;9.10;99.90;;;;;;4948995;29;20044;-86
2024/03/12 11:13:07;;;;;;;24.42;11.02;;;9.40;99.90;;;;;;4971947;29;20408;-87
2024/03/12 11:15:35;;;;;;;22.35;10.98;;;9.00;99.90;;;;;;4967482;29;20051;-86
2024/03/12 11:18:02;;;;;;;21.83;11.27;;;9.00;99.90;;;;;;4944733;29;20076;-89
2024/03/12 11:20:30;;;;;;;25.98;11.35;;;9.10;99.90;;;;;;4958771;29;20063;-87
2024/03/12 11:23:00;;;;;;;23.70;11.45;;;9.80;99.90;;;;;;4956690;29;20036;-87
2024/03/12 11:25:49;;;;;;;20.77;11.10;;;9.10;99.90;;;;;;4942912;29;20075;-86
2024/03/12 11:28:28;;;;;;;22.75;11.30;;;9.20;99.90;;;;;;4960449;29;20043;-89
2024/03/12 11:30:55;;;;;;;18.25;10.27;;;9.30;99.90;;;;;;4956497;28;20445;-88
2024/03/12 11:33:42;;;;;;;17.90;9.40;;;9.40;99.90;;;;;;4947479;29;20040;-90
2024/03/12 11:36:09;;;;;;;17.77;8.98;;;9.40;99.90;;;;;;4952892;29;20849;-89
2024/03/12 11:38:37;;;;;;;17.48;9.00;;;9.40;99.90;;;;;;4954505;29;20055;-88
2024/03/12 11:41:04;;;;;;;15.98;9.25;;;9.90;99.90;;;;;;4948702;28;20123;-90
2024/03/12 11:43:39;;;;;;;16.45;9.00;;;9.80;99.90;;;;;;4970148;28;20122;-89
2024/03/12 11:46:07;;;;;;;14.70;8.20;;;9.50;99.90;;;;;;4953192;29;20048;-89
2024/03/12 11:48:39;;;;;;;14.65;7.75;;;9.70;99.90;;;;;;4938363;29;20813;-89
2024/03/12 11:51:11;;;;;;;13.38;7.95;;;9.40;99.90;;;;;;4950622;29;20605;-88
2024/03/12 11:53:38;;;;;;;14.38;8.55;;;9.40;99.90;;;;;;4961542;29;20119;-89
2024/03/12 11:56:15;;;;;;;15.38;8.13;;;9.50;99.90;;;;;;4942923;29;20043;-89
2024/03/12 11:58:46;;;;;;;15.20;8.90;;;9.20;99.90;;;;;;4949374;29;20489;-89
2024/03/12 12:01:23;;;;;;;19.25;8.48;;;9.20;99.90;;;;;;4944134;29;20040;-89
2024/03/12 12:04:00;;;;;;;15.35;8.73;;;9.10;99.90;;;;;;4947646;29;20078;-89
2024/03/12 12:06:32;;;;;;;16.23;8.98;;;9.00;99.90;;;;;;4954926;29;20039;-89
2024/03/12 12:09:08;;;;;;;16.63;9.55;;;9.50;99.90;;;;;;4955165;29;20040;-88
2024/03/12 12:11:36;;;;;;;;;;;9.60;99.90;;;;;;4947625;29;20434;-88
2024/03/12 12:14:05;;;;;;;18.17;9.25;;;8.80;99.90;;;;;;4947515;29;19919;-88
2024/03/12 12:16:32;;;;;;;21.33;10.65;;;8.80;99.90;;;;;;4953673;29;20044;-89
2024/03/12 12:19:06;;;;;;;20.08;9.55;;;8.80;99.90;;;;;;4969030;29;20036;-89
2024/03/12 12:21:33;;;;;;;18.45;9.57;;;9.00;99.90;;;;;;4946142;29;20047;-89
2024/03/12 12:24:00;;;;;;;21.42;10.25;;;9.00;99.90;;;;;;4943587;29;20103;-89
2024/03/12 12:26:29;;;;;;;24.00;10.85;;;9.10;99.90;;;;;;4945540;29;20424;-89
2024/03/12 12:28:57;;;;;;;19.98;10.02;;;8.70;99.90;;;;;;4955557;29;20509;-88
2024/03/12 12:31:28;;;;;;;22.65;11.07;;;8.50;99.90;;;;;;4943012;29;20111;-89
2024/03/12 12:33:58;;;;;;;20.60;9.82;;;8.60;99.90;;;;;;4954900;29;20044;-88
2024/03/12 12:36:30;;;;;;;22.17;10.57;;;8.40;99.90;;;;;;4942749;29;20048;-89
2024/03/12 12:39:00;;;;;;;24.13;10.73;;;8.40;99.90;;;;;;4937290;29;20493;-89
2024/03/12 12:41:34;;;;;;;26.45;11.43;;;8.40;99.90;;;;;;4939577;29;20131;-89
2024/03/12 12:44:10;;;;;;;20.75;10.27;;;9.50;99.90;;;;;;4947503;29;20050;-89
2024/03/12 12:46:39;;;;;;;23.33;10.35;;;8.50;99.90;;;;;;4963359;29;20088;-89
2024/03/12 12:49:06;;;;;;;28.75;10.77;;;8.50;99.90;;;;;;4949194;29;20048;-88
2024/03/12 12:51:37;;;;;;;25.77;9.93;;;8.30;99.90;;;;;;4957572;29;20043;-90
2024/03/12 12:54:04;;;;;;;26.52;11.18;;;8.90;99.90;;;;;;4957026;29;20059;-89